Time;durP1;ratioP1;P1;durP2;ratioP2;P2;SDS_P1;SDS_P2;PMS_P1;PMS_P2;Temp;Humidity;BMP_temperature;BMP_pressure;BME280_temperature;BME280_humidity;BME280_pressure;Samples;Min_cycle;Max_cycle;Signal;HPM_P1;HPM_P2
2021/05/05 00:00:54;;;;;;;9.50;7.20;;;;;;;17.41;52.14;99281.78;5050094;28;20021;-67
2021/05/05 00:03:19;;;;;;;9.65;7.07;;;;;;;17.14;52.93;99275.38;5053626;28;20033;-67
2021/05/05 00:05:45;;;;;;;14.20;7.85;;;;;;;16.82;53.96;99270.91;5049999;28;20045;-67
2021/05/05 00:08:10;;;;;;;10.20;6.75;;;;;;;16.82;53.51;99259.63;5050473;28;20390;-67
2021/05/05 00:10:36;;;;;;;11.15;6.97;;;;;;;16.90;53.34;99250.06;5031834;28;20418;-67
2021/05/05 00:13:01;;;;;;;12.95;7.32;;;;;;;16.96;53.82;99261.81;5055183;28;20491;-67
2021/05/05 00:15:27;;;;;;;15.50;7.35;;;;;;;17.07;53.33;99262.78;5057281;28;20116;-67
2021/05/05 00:17:52;;;;;;;14.40;7.25;;;;;;;17.15;52.91;99262.88;5039057;28;20028;-67
2021/05/05 00:20:21;;;;;;;11.60;6.93;;;;;;;17.15;52.91;99266.53;5041201;28;20049;-67
2021/05/05 00:22:47;;;;;;;12.90;6.90;;;;;;;17.30;52.61;99278.00;5065545;28;20036;-67
2021/05/05 00:25:12;;;;;;;7.95;6.57;;;;;;;17.25;52.77;99287.63;5069314;28;20474;-68
2021/05/05 00:27:38;;;;;;;8.25;6.70;;;;;;;17.27;52.79;99296.53;5069368;28;20112;-67
2021/05/05 00:30:06;;;;;;;12.40;5.78;;;;;;;17.26;52.87;99286.44;5051081;28;20489;-67
2021/05/05 00:32:32;;;;;;;9.32;5.78;;;;;;;17.16;52.99;99272.97;5050690;28;20040;-67
2021/05/05 00:34:57;;;;;;;10.32;6.05;;;;;;;17.14;51.96;99276.22;5064130;28;20403;-67
2021/05/05 00:37:23;;;;;;;7.30;5.60;;;;;;;17.07;53.07;99278.94;5067716;28;20044;-67
2021/05/05 00:39:51;;;;;;;14.23;5.45;;;;;;;17.18;53.12;99279.88;5058207;28;20486;-67
2021/05/05 00:42:17;;;;;;;12.07;7.07;;;;;;;17.11;52.87;99285.44;5057519;28;20029;-68
2021/05/05 00:44:42;;;;;;;10.20;6.05;;;;;;;17.00;53.34;99288.13;5035360;28;20107;-67
2021/05/05 00:47:08;;;;;;;7.43;5.43;;;;;;;17.01;53.03;99292.59;5053686;28;20024;-67
2021/05/05 00:49:33;;;;;;;12.10;6.10;;;;;;;16.83;54.49;99292.31;5061450;28;20043;-68
2021/05/05 00:52:01;;;;;;;9.10;6.15;;;;;;;16.62;54.50;99290.81;5053699;28;20029;-68
2021/05/05 00:54:27;;;;;;;14.48;5.40;;;;;;;16.48;54.00;99299.06;5053303;28;20036;-67
2021/05/05 00:56:52;;;;;;;8.35;5.38;;;;;;;16.48;54.53;99297.06;5058964;28;20451;-68
2021/05/05 00:59:18;;;;;;;8.63;5.75;;;;;;;16.44;55.04;99286.91;5050178;28;20078;-68
2021/05/05 01:01:43;;;;;;;8.05;5.82;;;;;;;16.12;56.67;99283.19;5068545;28;20074;-67
2021/05/05 01:04:11;;;;;;;7.45;5.72;;;;;;;15.99;56.45;99282.56;5045422;28;20028;-67
2021/05/05 01:06:37;;;;;;;11.73;5.90;;;;;;;16.04;56.84;99272.94;5067794;28;20037;-67
2021/05/05 01:09:04;;;;;;;10.50;6.15;;;;;;;15.83;56.80;99267.72;5058625;28;20128;-67
2021/05/05 01:11:30;;;;;;;7.45;5.85;;;;;;;15.92;57.32;99265.50;5057064;28;20029;-67
2021/05/05 01:13:55;;;;;;;7.28;4.80;;;;;;;15.89;57.48;99265.41;5060237;28;20033;-67
2021/05/05 01:16:21;;;;;;;8.90;5.40;;;;;;;15.74;57.32;99268.00;5049916;28;20035;-67
2021/05/05 01:18:49;;;;;;;10.48;5.25;;;;;;;15.70;57.73;99261.47;5062286;28;20090;-67
2021/05/05 01:21:14;;;;;;;10.95;6.50;;;;;;;15.57;57.25;99266.47;5056597;28;20056;-68
2021/05/05 01:23:40;;;;;;;10.43;5.68;;;;;;;15.51;57.76;99259.53;5044821;28;20067;-67
2021/05/05 01:26:05;;;;;;;8.43;5.80;;;;;;;15.58;57.79;99249.19;5067464;28;20506;-67
2021/05/05 01:28:31;;;;;;;7.18;5.07;;;;;;;15.73;56.93;99241.00;5056628;28;20537;-67
2021/05/05 01:30:57;;;;;;;7.47;6.20;;;;;;;15.44;57.61;99238.47;5059882;28;20028;-67
2021/05/05 01:33:22;;;;;;;9.15;5.85;;;;;;;15.39;57.33;99246.41;5037652;28;20037;-67
2021/05/05 01:35:49;;;;;;;10.30;6.20;;;;;;;15.41;57.61;99252.47;5060271;28;20024;-68
2021/05/05 01:38:16;;;;;;;10.07;7.05;;;;;;;15.57;57.48;99255.19;5056694;28;20493;-68
2021/05/05 01:40:43;;;;;;;14.98;7.85;;;;;;;15.61;57.20;99255.25;5057859;28;20037;-67
2021/05/05 01:43:09;;;;;;;9.70;6.15;;;;;;;15.50;57.64;99246.59;5066157;28;20068;-67
2021/05/05 01:45:35;;;;;;;13.07;6.68;;;;;;;15.43;57.31;99241.63;5052112;28;20067;-68
2021/05/05 01:48:04;;;;;;;9.75;6.70;;;;;;;15.27;58.19;99241.75;5052030;28;20039;-68
2021/05/05 01:50:30;;;;;;;8.95;6.50;;;;;;;15.52;57.54;99250.69;5033755;28;20035;-67
2021/05/05 01:52:55;;;;;;;12.23;6.40;;;;;;;15.61;57.28;99258.09;5053885;28;20050;-67
2021/05/05 01:55:21;;;;;;;16.13;9.43;;;;;;;15.55;57.40;99251.94;5068631;28;20112;-68
2021/05/05 01:57:46;;;;;;;9.38;5.97;;;;;;;15.37;57.01;99234.69;5070735;28;20052;-67
2021/05/05 02:00:19;;;;;;;10.43;6.72;;;;;;;15.22;57.71;99230.78;5064436;28;20035;-68
2021/05/05 02:02:45;;;;;;;7.03;5.80;;;;;;;15.35;58.13;99220.16;5065548;28;20029;-67
2021/05/05 02:05:11;;;;;;;9.23;7.30;;;;;;;15.42;57.22;99220.28;5065143;28;20055;-67
2021/05/05 02:07:37;;;;;;;11.90;7.20;;;;;;;15.30;58.14;99218.47;5059594;28;20110;-67
2021/05/05 02:10:06;;;;;;;10.68;6.75;;;;;;;15.56;57.10;99225.38;5065491;28;20033;-68
2021/05/05 02:12:31;;;;;;;14.80;7.93;;;;;;;15.70;56.45;99234.09;5060697;28;20029;-67
2021/05/05 02:14:57;;;;;;;16.98;7.85;;;;;;;15.56;57.21;99228.19;5063306;28;20021;-68
2021/05/05 02:17:23;;;;;;;17.10;7.82;;;;;;;15.62;56.65;99225.88;5062300;28;20049;-67
2021/05/05 02:19:49;;;;;;;9.68;6.90;;;;;;;15.38;57.28;99219.41;5052811;28;20414;-67
2021/05/05 02:22:15;;;;;;;19.05;6.70;;;;;;;15.53;56.81;99226.13;5064512;28;20087;-67
2021/05/05 02:24:40;;;;;;;13.35;7.25;;;;;;;15.52;57.26;99230.16;5059305;28;20035;-67
2021/05/05 02:27:06;;;;;;;13.73;7.80;;;;;;;15.19;57.98;99223.88;5060525;28;20120;-67
2021/05/05 02:29:32;;;;;;;15.07;7.40;;;;;;;15.15;57.75;99217.38;5048372;28;20059;-67
2021/05/05 02:31:59;;;;;;;10.63;6.57;;;;;;;15.08;57.85;99208.75;5062660;28;20387;-67
2021/05/05 02:34:24;;;;;;;12.35;7.43;;;;;;;14.97;58.70;99198.13;5061477;28;20037;-67
2021/05/05 02:36:50;;;;;;;12.25;5.88;;;;;;;15.23;57.41;99207.88;5041476;28;20025;-67
2021/05/05 02:39:18;;;;;;;15.40;7.15;;;;;;;15.36;56.89;99204.88;5056128;28;20054;-67
2021/05/05 02:41:44;;;;;;;10.70;7.28;;;;;;;15.29;56.74;99206.38;5053628;28;20029;-67
2021/05/05 02:44:10;;;;;;;11.90;7.00;;;;;;;15.43;56.59;99205.00;5051190;28;20021;-67
2021/05/05 02:46:35;;;;;;;10.48;7.05;;;;;;;15.26;56.83;99207.13;5044139;28;20040;-67
2021/05/05 02:49:02;;;;;;;8.30;6.57;;;;;;;15.25;56.77;99215.94;5052561;28;20418;-68
2021/05/05 02:51:27;;;;;;;14.80;6.53;;;;;;;15.14;57.34;99198.84;5053414;28;20040;-67
2021/05/05 02:53:53;;;;;;;11.35;6.82;;;;;;;15.04;57.52;99205.91;5053030;28;20037;-67
2021/05/05 02:56:18;;;;;;;8.50;7.13;;;;;;;15.09;57.25;99228.13;5055220;28;20044;-67
2021/05/05 02:58:44;;;;;;;11.05;6.82;;;;;;;15.08;57.60;99239.75;5053790;28;20071;-67
2021/05/05 03:01:09;;;;;;;12.73;7.53;;;;;;;15.19;57.18;99235.16;5034411;28;20091;-67
2021/05/05 03:03:35;;;;;;;18.20;6.85;;;;;;;15.35;56.71;99234.25;5053598;28;20032;-67
2021/05/05 03:06:00;;;;;;;8.93;6.97;;;;;;;15.24;56.91;99231.22;5063621;28;20048;-67
2021/05/05 03:08:26;;;;;;;10.65;6.63;;;;;;;15.20;57.10;99235.97;5061696;28;20032;-67
2021/05/05 03:10:51;;;;;;;14.45;6.85;;;;;;;15.10;56.92;99231.78;5057761;28;20024;-67
2021/05/05 03:13:17;;;;;;;10.93;6.70;;;;;;;15.23;56.79;99238.03;5058295;28;20474;-68
2021/05/05 03:15:42;;;;;;;11.70;6.50;;;;;;;15.25;56.46;99247.75;5059760;28;20017;-67
2021/05/05 03:18:08;;;;;;;9.80;6.60;;;;;;;15.28;57.01;99241.38;5057822;28;20426;-67
2021/05/05 03:20:34;;;;;;;8.45;7.10;;;;;;;15.30;57.05;99236.16;5061484;28;20085;-67
2021/05/05 03:22:59;;;;;;;20.58;9.32;;;;;;;15.22;57.81;99240.06;5057922;28;20430;-67
2021/05/05 03:25:25;;;;;;;22.50;11.27;;;;;;;15.34;57.56;99236.25;5048128;28;20422;-67
2021/05/05 03:27:50;;;;;;;50.67;14.77;;;;;;;15.51;56.61;99236.97;5044094;28;20075;-67
2021/05/05 03:30:17;;;;;;;33.63;14.68;;;;;;;15.64;55.99;99244.06;5046940;28;20052;-68
2021/05/05 03:32:42;;;;;;;22.60;10.75;;;;;;;15.81;55.83;99237.09;5040423;28;21552;-67
2021/05/05 03:35:08;;;;;;;26.02;9.77;;;;;;;15.65;55.79;99247.69;5061614;28;20087;-67
2021/05/05 03:37:34;;;;;;;21.20;8.88;;;;;;;15.66;56.32;99249.31;5060630;28;20132;-67
2021/05/05 03:40:00;;;;;;;11.88;6.97;;;;;;;15.70;55.78;99259.47;5037921;28;20120;-67
2021/05/05 03:42:25;;;;;;;11.02;6.35;;;;;;;15.58;55.91;99271.75;5050793;28;20065;-67
2021/05/05 03:44:51;;;;;;;10.90;6.45;;;;;;;15.63;56.48;99269.78;5049831;28;20036;-67
2021/05/05 03:47:17;;;;;;;14.88;7.50;;;;;;;15.66;56.52;99266.22;5032422;28;20029;-67
2021/05/05 03:49:42;;;;;;;15.18;7.95;;;;;;;15.73;56.09;99260.72;5058252;28;20032;-67
2021/05/05 03:52:08;;;;;;;9.55;7.43;;;;;;;15.75;56.48;99261.16;5069959;28;20035;-67
2021/05/05 03:54:33;;;;;;;15.35;9.18;;;;;;;15.78;55.63;99266.03;5051944;28;20033;-67
2021/05/05 03:56:58;;;;;;;20.17;11.75;;;;;;;15.76;56.14;99273.25;5051492;28;20029;-67
2021/05/05 03:59:24;;;;;;;23.00;9.60;;;;;;;15.77;55.72;99277.72;5063624;28;20398;-67
2021/05/05 04:01:49;;;;;;;9.52;7.43;;;;;;;15.80;56.09;99291.06;5069712;28;20402;-67
2021/05/05 04:04:15;;;;;;;16.50;7.05;;;;;;;15.95;55.41;99290.13;5052256;28;20482;-67
2021/05/05 04:06:40;;;;;;;15.88;8.52;;;;;;;15.81;55.81;99289.84;5072003;28;20048;-67
2021/05/05 04:09:06;;;;;;;10.85;6.40;;;;;;;15.70;56.11;99286.84;5064560;28;20501;-67
2021/05/05 04:11:32;;;;;;;10.50;7.35;;;;;;;15.75;55.60;99292.16;5065046;28;20037;-67
2021/05/05 04:13:57;;;;;;;13.07;7.78;;;;;;;15.83;55.75;99296.75;5062693;28;20023;-68
2021/05/05 04:16:23;;;;;;;11.32;7.03;;;;;;;15.64;55.74;99310.88;5044547;28;20475;-67
2021/05/05 04:18:49;;;;;;;11.27;7.47;;;;;;;15.54;56.15;99301.84;5073451;28;20271;-67
2021/05/05 04:21:14;;;;;;;17.02;7.82;;;;;;;15.61;56.66;99306.00;5070799;28;20048;-68
2021/05/05 04:23:39;;;;;;;14.93;8.25;;;;;;;15.82;55.64;99312.06;5073227;28;20024;-67
2021/05/05 04:26:06;;;;;;;13.63;8.10;;;;;;;15.49;56.41;99315.44;5070107;28;20044;-67
2021/05/05 04:28:32;;;;;;;19.10;8.68;;;;;;;15.61;55.91;99328.56;5072881;28;20029;-69
2021/05/05 04:30:57;;;;;;;11.85;8.45;;;;;;;15.51;56.43;99324.34;5073008;28;20056;-67
2021/05/05 04:33:23;;;;;;;12.02;7.30;;;;;;;15.33;57.27;99327.59;5050117;28;20568;-67
2021/05/05 04:35:49;;;;;;;28.55;7.97;;;;;;;15.22;58.52;99329.38;5063094;28;20024;-70
2021/05/05 04:38:14;;;;;;;10.32;7.25;;;;;;;15.26;58.99;99313.34;5057470;28;20033;-64
2021/05/05 04:40:40;;;;;;;37.67;9.23;;;;;;;15.37;59.40;99316.41;5058626;28;20021;-68
2021/05/05 04:43:06;;;;;;;11.85;7.35;;;;;;;15.43;59.38;99323.38;5056313;28;20036;-70
2021/05/05 04:45:31;;;;;;;13.25;7.35;;;;;;;15.52;60.87;99331.63;5057946;28;20044;-67
2021/05/05 04:47:59;;;;;;;17.23;8.45;;;;;;;15.55;60.37;99328.84;5039763;28;20036;-71
2021/05/05 04:50:25;;;;;;;9.55;7.45;;;;;;;15.51;60.57;99335.63;5057336;28;20552;-71
2021/05/05 04:52:51;;;;;;;20.58;8.57;;;;;;;15.45;61.67;99337.94;5063956;28;20067;-71
2021/05/05 04:55:17;;;;;;;11.02;8.43;;;;;;;15.45;59.94;99340.75;5070929;28;20062;-64
2021/05/05 04:57:42;;;;;;;12.32;8.30;;;;;;;15.27;60.92;99332.72;5072501;28;20040;-68
2021/05/05 05:00:09;;;;;;;11.98;7.97;;;;;;;15.22;62.12;99333.03;5072201;28;20031;-68
2021/05/05 05:02:35;;;;;;;13.80;8.45;;;;;;;15.20;62.39;99332.56;5062525;28;20032;-63
2021/05/05 05:05:03;;;;;;;11.57;7.90;;;;;;;15.27;61.07;99332.72;5066125;28;20063;-64
2021/05/05 05:07:29;;;;;;;15.45;8.20;;;;;;;15.27;62.47;99332.72;5061419;28;20039;-67
2021/05/05 05:09:55;;;;;;;14.15;8.55;;;;;;;15.33;62.15;99318.34;5064724;28;20024;-70
2021/05/05 05:12:20;;;;;;;9.73;7.85;;;;;;;15.25;62.86;99326.66;5047169;28;20029;-66
2021/05/05 05:14:46;;;;;;;13.00;8.18;;;;;;;15.13;63.56;99338.06;5053756;28;20056;-68
2021/05/05 05:17:11;;;;;;;10.25;7.70;;;;;;;14.87;63.31;99342.31;5047680;28;20044;-68
2021/05/05 05:19:37;;;;;;;13.32;9.20;;;;;;;14.69;65.07;99342.69;5068232;28;20060;-69
2021/05/05 05:22:02;;;;;;;14.18;8.57;;;;;;;14.85;65.38;99344.69;5070162;28;20062;-65
2021/05/05 05:24:28;;;;;;;19.48;9.23;;;;;;;15.02;64.99;99349.91;5048315;28;20040;-67
2021/05/05 05:26:53;;;;;;;14.45;9.25;;;;;;;15.07;64.76;99351.63;5047151;28;20051;-65
2021/05/05 05:29:19;;;;;;;12.00;9.27;;;;;;;15.15;63.85;99349.75;5064294;28;20050;-68
2021/05/05 05:31:45;;;;;;;15.05;9.35;;;;;;;14.98;64.64;99354.66;5065105;28;20056;-66
2021/05/05 05:34:11;;;;;;;12.73;9.05;;;;;;;15.08;64.45;99356.06;5061751;28;20021;-68
2021/05/05 05:36:37;;;;;;;18.25;9.25;;;;;;;14.96;64.24;99354.19;5057858;28;20032;-69
2021/05/05 05:39:03;;;;;;;12.68;9.90;;;;;;;15.26;64.54;99348.00;5059509;28;20028;-65
2021/05/05 05:41:28;;;;;;;12.05;9.25;;;;;;;15.19;65.11;99339.38;5051226;28;20052;-65
2021/05/05 05:43:54;;;;;;;17.42;8.50;;;;;;;15.38;64.19;99343.41;5048763;28;20403;-65
2021/05/05 05:46:19;;;;;;;11.85;8.13;;;;;;;15.10;64.32;99331.16;5030880;28;20039;-69
2021/05/05 05:48:45;;;;;;;11.10;8.77;;;;;;;15.16;64.26;99323.22;5040685;28;20025;-69
2021/05/05 05:51:10;;;;;;;10.52;8.55;;;;;;;15.11;65.62;99329.97;5059177;28;20052;-65
2021/05/05 05:53:36;;;;;;;22.40;10.80;;;;;;;15.20;65.91;99335.38;5052646;28;20086;-69
2021/05/05 05:56:02;;;;;;;12.32;8.38;;;;;;;15.22;64.56;99335.00;5057838;28;20020;-69
2021/05/05 05:58:27;;;;;;;10.15;8.38;;;;;;;15.55;63.21;99323.19;5065755;28;20028;-65
2021/05/05 06:00:53;;;;;;;19.02;9.02;;;;;;;15.70;62.91;99327.13;5046992;28;20560;-69
2021/05/05 06:03:18;;;;;;;10.02;8.63;;;;;;;15.58;62.29;99328.13;5067838;28;20037;-66
2021/05/05 06:05:44;;;;;;;14.85;8.82;;;;;;;15.68;61.71;99331.50;5061867;28;20123;-66
2021/05/05 06:08:09;;;;;;;14.70;9.88;;;;;;;15.75;61.06;99320.38;5063759;28;20204;-68
2021/05/05 06:10:35;;;;;;;18.25;9.82;;;;;;;15.58;61.16;99319.66;5060807;28;20035;-68
2021/05/05 06:13:00;;;;;;;14.75;9.27;;;;;;;15.50;60.83;99317.06;5058177;28;20033;-67
2021/05/05 06:15:26;;;;;;;13.93;9.70;;;;;;;15.42;62.05;99316.09;5056858;28;20438;-68
2021/05/05 06:17:51;;;;;;;13.38;9.93;;;;;;;15.67;63.35;99304.50;5052463;28;20033;-66
2021/05/05 06:20:18;;;;;;;13.43;9.77;;;;;;;15.80;64.69;99297.50;5051952;28;20051;-68
2021/05/05 06:22:44;;;;;;;12.07;9.38;;;;;;;15.88;62.30;99300.44;5052147;28;20040;-66
2021/05/05 06:25:11;;;;;;;14.57;9.85;;;;;;;15.90;60.27;99301.75;5049318;28;20074;-69
2021/05/05 06:27:37;;;;;;;15.43;9.45;;;;;;;15.83;61.19;99298.75;5063732;28;20102;-69
2021/05/05 06:30:08;;;;;;;14.77;10.25;;;;;;;15.95;64.69;99300.63;5047528;28;20032;-67
2021/05/05 06:32:33;;;;;;;18.75;10.48;;;;;;;16.12;63.44;99300.09;5061007;28;20108;-65
2021/05/05 06:34:59;;;;;;;15.55;10.73;;;;;;;16.37;62.97;99301.72;5056610;28;20113;-69
2021/05/05 06:37:25;;;;;;;13.38;10.10;;;;;;;16.64;62.79;99302.53;5061391;28;20037;-66
2021/05/05 06:39:51;;;;;;;14.63;8.73;;;;;;;16.72;60.43;99305.47;5056672;28;20074;-69
2021/05/05 06:42:16;;;;;;;15.50;10.00;;;;;;;16.68;60.64;99306.22;5047051;28;20036;-69
2021/05/05 06:44:42;;;;;;;12.73;10.25;;;;;;;16.83;61.46;99307.25;5039477;28;20121;-66
2021/05/05 06:47:07;;;;;;;16.85;9.77;;;;;;;16.82;60.03;99293.50;5050944;28;20033;-69
2021/05/05 06:49:34;;;;;;;11.82;9.73;;;;;;;16.51;60.27;99290.66;5050857;28;20029;-65
2021/05/05 06:52:00;;;;;;;13.27;9.93;;;;;;;16.48;61.45;99287.75;5048218;28;20031;-65
2021/05/05 06:54:26;;;;;;;14.43;10.68;;;;;;;16.37;61.03;99274.28;5052719;28;20039;-68
2021/05/05 06:56:53;;;;;;;13.02;9.98;;;;;;;16.41;61.56;99280.84;5070437;28;20033;-70
2021/05/05 06:59:18;;;;;;;18.13;9.85;;;;;;;16.32;61.47;99276.63;5067426;28;20039;-69
2021/05/05 07:01:44;;;;;;;14.63;9.95;;;;;;;16.46;61.69;99285.31;5068016;28;20405;-70
2021/05/05 07:04:10;;;;;;;15.13;10.77;;;;;;;16.51;62.73;99285.00;5060310;28;20121;-65
2021/05/05 07:06:36;;;;;;;15.63;10.63;;;;;;;16.61;61.16;99288.38;5065724;28;20050;-68
2021/05/05 07:09:04;;;;;;;13.43;10.38;;;;;;;16.67;62.48;99284.00;5045523;28;20043;-67
2021/05/05 07:11:32;;;;;;;19.17;12.00;;;;;;;16.80;59.59;99284.59;5042552;28;20039;-69
2021/05/05 07:13:57;;;;;;;16.95;11.43;;;;;;;16.93;59.26;99285.16;5035930;28;20029;-70
2021/05/05 07:16:23;;;;;;;16.17;11.07;;;;;;;17.23;57.23;99287.22;5054699;28;20256;-68
2021/05/05 07:18:48;;;;;;;16.67;11.48;;;;;;;17.31;59.49;99285.28;5062683;28;20039;-67
2021/05/05 07:21:14;;;;;;;19.95;11.38;;;;;;;17.03;58.63;99292.22;5069694;28;20036;-70
2021/05/05 07:23:40;;;;;;;19.38;11.18;;;;;;;16.98;59.39;99285.66;5069784;28;20080;-67
2021/05/05 07:26:05;;;;;;;15.60;11.05;;;;;;;17.00;59.27;99288.13;5069106;28;20099;-68
2021/05/05 07:28:31;;;;;;;18.83;11.60;;;;;;;16.96;58.51;99285.22;5064468;28;20086;-66
2021/05/05 07:30:57;;;;;;;16.45;10.93;;;;;;;17.28;57.64;99281.22;5050842;28;20103;-69
2021/05/05 07:33:23;;;;;;;15.20;12.50;;;;;;;17.12;60.12;99289.88;5069741;28;20039;-67
2021/05/05 07:35:55;;;;;;;18.42;12.98;;;;;;;17.23;58.38;99290.03;5065799;28;20021;-70
2021/05/05 07:50:58;;;;;;;17.30;12.95;;;;;;;17.16;59.19;99268.16;5053544;28;20037;-70
2021/05/05 07:53:24;;;;;;;24.20;14.13;;;;;;;16.95;58.61;99269.47;5056032;28;20032;-67
2021/05/05 07:55:51;;;;;;;16.73;13.90;;;;;;;17.16;58.56;99256.84;5063902;28;20029;-70
2021/05/05 07:58:17;;;;;;;19.17;13.25;;;;;;;17.37;58.28;99255.47;5068662;28;20036;-69
2021/05/05 08:00:42;;;;;;;22.23;14.40;;;;;;;17.40;58.38;99255.50;5048576;28;20405;-69
2021/05/05 08:03:08;;;;;;;18.52;13.55;;;;;;;16.93;58.17;99259.75;5063602;28;20033;-67
2021/05/05 08:05:33;;;;;;;26.58;19.13;;;;;;;17.17;58.54;99257.66;5065871;28;20041;-69
2021/05/05 08:07:59;;;;;;;48.75;43.65;;;;;;;17.60;57.87;99258.16;5060341;28;20437;-70
2021/05/05 08:10:24;;;;;;;27.25;21.02;;;;;;;17.64;57.72;99256.16;5062132;28;20074;-67
2021/05/05 08:12:50;;;;;;;26.85;19.27;;;;;;;17.68;59.64;99247.72;5057250;28;20029;-67
2021/05/05 08:15:16;;;;;;;25.10;18.58;;;;;;;17.75;60.04;99247.78;5036314;28;20033;-67
2021/05/05 08:17:42;;;;;;;29.02;20.98;;;;;;;17.76;59.34;99246.59;5053469;28;20033;-67
2021/05/05 08:20:08;;;;;;;33.30;21.27;;;;;;;17.60;57.53;99246.00;5034549;28;20562;-69
2021/05/05 08:22:34;;;;;;;26.90;21.30;;;;;;;17.54;60.05;99254.84;5041403;28;20132;-68
2021/05/05 08:24:59;;;;;;;26.15;19.60;;;;;;;17.64;58.28;99261.00;5052304;28;20029;-67
2021/05/05 08:27:25;;;;;;;30.98;22.08;;;;;;;17.57;58.24;99252.44;5055165;28;20028;-70
2021/05/05 08:29:52;;;;;;;28.17;22.55;;;;;;;17.83;58.09;99255.13;5034630;28;20021;-67
2021/05/05 08:32:18;;;;;;;27.95;21.17;;;;;;;18.13;55.93;99259.03;5062911;28;20039;-69
2021/05/05 08:34:44;;;;;;;29.20;22.23;;;;;;;18.14;55.95;99257.84;5057086;28;20123;-69
2021/05/05 08:37:09;;;;;;;33.00;22.60;;;;;;;18.15;57.86;99248.13;5061444;28;20411;-70
2021/05/05 08:39:35;;;;;;;30.02;21.35;;;;;;;18.13;54.98;99238.44;5060101;28;20028;-67
2021/05/05 08:42:01;;;;;;;30.40;21.45;;;;;;;18.30;56.03;99234.91;5056790;28;20051;-70
2021/05/05 08:44:27;;;;;;;33.42;22.02;;;;;;;18.36;54.94;99233.34;5059647;28;20111;-66
2021/05/05 08:46:53;;;;;;;34.55;21.15;;;;;;;18.22;54.87;99236.06;5046906;28;20052;-68
2021/05/05 08:49:19;;;;;;;32.70;21.55;;;;;;;18.11;56.40;99241.66;5057514;28;20040;-68
2021/05/05 08:51:46;;;;;;;29.73;21.58;;;;;;;18.27;55.09;99227.22;5061035;28;20199;-68
2021/05/05 08:54:11;;;;;;;30.35;20.60;;;;;;;18.66;57.35;99240.81;5054537;28;20085;-69
2021/05/05 08:56:38;;;;;;;23.05;18.73;;;;;;;19.07;54.92;99227.69;5037546;28;20461;-69
2021/05/05 08:59:12;;;;;;;33.67;21.98;;;;;;;19.20;55.21;99223.28;5050807;28;20056;-70
2021/05/05 09:01:39;;;;;;;24.98;19.23;;;;;;;19.46;53.62;99218.47;5071991;28;20037;-70
2021/05/05 09:04:06;;;;;;;25.60;17.52;;;;;;;19.87;52.34;99210.81;5065849;28;20021;-69
2021/05/05 09:06:56;;;;;;;24.88;17.25;;;;;;;20.02;51.83;99215.28;5057606;28;20056;-67
2021/05/05 09:09:44;;;;;;;21.52;17.15;;;;;;;19.95;51.56;99205.97;5069555;28;20028;-69
2021/05/05 09:12:17;;;;;;;20.10;17.20;;;;;;;19.68;53.42;99206.34;5055298;28;20087;-70
2021/05/05 09:14:52;;;;;;;23.02;17.50;;;;;;;19.66;53.76;99195.38;5034776;28;20116;-70
2021/05/05 09:17:19;;;;;;;19.08;17.02;;;;;;;19.53;53.49;99185.66;5055701;28;20524;-70
2021/05/05 09:19:45;;;;;;;22.60;16.77;;;;;;;19.52;53.13;99189.72;5039305;28;20032;-69
2021/05/05 09:22:10;;;;;;;20.25;14.57;;;;;;;19.77;51.08;99192.56;5072848;28;20032;-70
2021/05/05 09:24:38;;;;;;;22.73;15.27;;;;;;;19.33;50.41;99189.69;5043886;28;20407;-69
2021/05/05 09:27:06;;;;;;;24.17;15.82;;;;;;;19.29;52.07;99196.53;5053811;28;20029;-70
2021/05/05 09:29:47;;;;;;;17.23;15.43;;;;;;;19.40;51.38;99180.38;5043652;28;20021;-70
2021/05/05 09:32:20;;;;;;;19.05;15.32;;;;;;;19.39;51.52;99187.25;5058820;28;20070;-71
2021/05/05 09:35:04;;;;;;;24.08;17.58;;;;;;;19.56;51.77;99179.19;5045127;28;20029;-71
2021/05/05 09:37:30;;;;;;;28.52;19.83;;;;;;;19.52;53.20;99184.03;5072177;28;20038;-69
2021/05/05 09:40:01;;;;;;;20.60;17.45;;;;;;;19.82;50.94;99168.66;5063388;28;20484;-69
2021/05/05 09:42:29;;;;;;;38.53;20.42;;;;;;;19.81;50.96;99161.38;5048271;28;20100;-69
2021/05/05 09:44:55;;;;;;;29.38;19.30;;;;;;;19.76;52.68;99160.53;5054638;28;20433;-70
2021/05/05 09:47:21;;;;;;;24.83;18.73;;;;;;;20.12;50.88;99156.91;5055025;28;20025;-69
2021/05/05 09:49:46;;;;;;;23.98;18.63;;;;;;;20.48;50.02;99158.84;5040843;28;20094;-69
2021/05/05 09:52:18;;;;;;;27.13;19.65;;;;;;;20.71;49.24;99161.22;5054964;28;20025;-70
2021/05/05 09:54:53;;;;;;;24.80;18.30;;;;;;;20.77;49.14;99153.88;5046076;28;20078;-69
2021/05/05 09:57:23;;;;;;;27.30;18.73;;;;;;;20.72;49.80;99147.78;5048388;28;20039;-69
2021/05/05 10:00:00;;;;;;;25.38;17.63;;;;;;;20.94;47.26;99139.19;5069358;28;20559;-70
2021/05/05 10:02:28;;;;;;;23.70;19.65;;;;;;;20.99;48.94;99133.06;5065017;28;20089;-69
2021/05/05 10:05:11;;;;;;;21.55;17.58;;;;;;;20.94;48.18;99140.03;5051339;28;20071;-69
2021/05/05 10:07:49;;;;;;;22.33;18.30;;;;;;;20.58;48.17;99145.84;5068828;28;20032;-71
2021/05/05 10:10:15;;;;;;;22.77;17.88;;;;;;;20.58;47.83;99137.31;5066327;28;20047;-71
2021/05/05 10:12:41;;;;;;;32.28;26.45;;;;;;;20.66;48.75;99126.72;5067128;28;20025;-69
2021/05/05 10:15:07;;;;;;;27.42;21.88;;;;;;;20.74;48.66;99123.44;5070731;28;20023;-71
2021/05/05 10:17:34;;;;;;;27.75;20.40;;;;;;;20.44;49.34;99130.44;5043479;28;20502;-71
2021/05/05 10:20:02;;;;;;;38.15;32.53;;;;;;;20.59;49.16;99125.53;5060300;28;20119;-70
2021/05/05 10:22:29;;;;;;;27.20;23.40;;;;;;;20.90;48.75;99116.47;5069001;28;20033;-70
2021/05/05 10:24:55;;;;;;;35.17;21.35;;;;;;;20.59;48.69;99105.63;5064553;28;20035;-68
2021/05/05 10:27:20;;;;;;;23.60;20.85;;;;;;;20.61;48.32;99099.56;5065185;28;20416;-69
2021/05/05 10:29:46;;;;;;;23.27;19.75;;;;;;;20.70;47.87;99088.56;5068304;28;20032;-70
2021/05/05 10:32:14;;;;;;;30.42;22.13;;;;;;;20.71;48.58;99090.19;5068263;28;20090;-69
2021/05/05 10:34:41;;;;;;;23.70;19.27;;;;;;;20.62;48.45;99089.81;5048673;28;20040;-69
2021/05/05 10:37:08;;;;;;;22.98;20.40;;;;;;;20.45;48.86;99080.13;5051084;28;20081;-69
2021/05/05 10:39:38;;;;;;;28.38;22.63;;;;;;;20.38;49.09;99075.31;5047013;28;20719;-68
2021/05/05 10:42:16;;;;;;;25.10;20.80;;;;;;;20.38;49.97;99069.63;5049264;28;20400;-69
2021/05/05 10:44:54;;;;;;;26.35;21.20;;;;;;;20.21;51.61;99068.47;5041453;28;20418;-69
2021/05/05 10:47:31;;;;;;;25.60;19.85;;;;;;;20.17;51.89;99073.34;5068504;28;20036;-69
2021/05/05 10:52:54;;;;;;;25.05;18.02;;;;;;;20.63;50.60;99068.69;5066888;28;20036;-69
2021/05/05 10:55:50;;;;;;;23.10;17.30;;;;;;;21.11;47.62;99063.56;5038497;28;20077;-68
2021/05/05 10:58:24;;;;;;;34.90;17.58;;;;;;;21.26;48.05;99065.06;5070319;28;20062;-69
2021/05/05 11:00:55;;;;;;;28.23;18.30;;;;;;;21.13;48.07;99064.78;5066169;28;20017;-68
2021/05/05 11:03:42;;;;;;;38.83;22.13;;;;;;;21.18;48.43;99060.69;5070070;28;20090;-68
2021/05/05 11:06:29;;;;;;;27.17;22.23;;;;;;;21.59;46.82;99053.41;5044373;28;20142;-68
2021/05/05 11:08:55;;;;;;;27.38;20.58;;;;;;;21.82;45.68;99052.00;5033804;28;20043;-69
2021/05/05 11:11:35;;;;;;;38.78;23.05;;;;;;;21.82;45.93;99044.28;5054086;28;20025;-68
2021/05/05 11:14:00;;;;;;;32.78;19.95;;;;;;;21.65;47.50;99045.22;5066469;28;20031;-68
2021/05/05 11:16:52;;;;;;;19.13;16.20;;;;;;;21.98;46.62;99049.41;5060795;28;20430;-68
2021/05/05 11:19:45;;;;;;;26.55;19.23;;;;;;;22.04;46.07;99043.22;5068647;28;20033;-70
2021/05/05 11:22:23;;;;;;;26.50;19.00;;;;;;;21.85;46.36;99036.94;5069996;28;20179;-67
2021/05/05 11:24:50;;;;;;;21.50;17.20;;;;;;;21.85;46.72;99031.25;5066654;28;20036;-68
2021/05/05 11:27:18;;;;;;;24.65;16.35;;;;;;;22.07;45.76;99022.44;5067450;28;20037;-67
2021/05/05 11:29:51;;;;;;;18.63;14.73;;;;;;;22.17;45.19;99030.06;5068170;28;20303;-67
2021/05/05 11:32:23;;;;;;;23.50;17.05;;;;;;;22.57;44.86;99027.56;5070261;28;20036;-69
2021/05/05 11:34:49;;;;;;;26.38;17.10;;;;;;;22.72;45.37;99010.25;5057186;28;20027;-67
2021/05/05 11:37:20;;;;;;;23.20;17.23;;;;;;;22.35;44.49;99006.25;5069513;28;20037;-67